createdAt,value
2023-04-14T00:00:37.730Z,9.36
2023-04-14T00:03:17.634Z,9.35
2023-04-14T00:05:46.355Z,9.34
2023-04-14T00:08:14.748Z,9.32
2023-04-14T00:10:43.088Z,9.31
2023-04-14T00:13:11.555Z,9.31
2023-04-14T00:15:42.061Z,9.29
2023-04-14T00:18:10.635Z,9.27
2023-04-14T00:20:39.250Z,9.25
2023-04-14T00:23:07.636Z,9.22
2023-04-14T00:25:36.044Z,9.21
2023-04-14T00:28:04.429Z,9.19
2023-04-14T00:30:33.020Z,9.18
2023-04-14T00:33:01.281Z,9.17
2023-04-14T00:35:32.459Z,9.16
2023-04-14T00:38:00.763Z,9.16
2023-04-14T00:40:31.396Z,9.15
2023-04-14T00:42:59.742Z,9.15
2023-04-14T00:45:28.723Z,9.14
2023-04-14T00:47:58.494Z,9.12
2023-04-14T00:50:26.853Z,9.08
2023-04-14T00:52:56.166Z,9.04
2023-04-14T00:55:25.074Z,9.01
2023-04-14T00:57:54.897Z,8.96
2023-04-14T01:00:23.435Z,8.91
2023-04-14T01:02:51.949Z,8.86
2023-04-14T01:05:20.590Z,8.81
2023-04-14T01:07:49.912Z,8.76
2023-04-14T01:10:18.487Z,8.70
2023-04-14T01:12:46.922Z,8.66
2023-04-14T01:15:31.317Z,8.61
2023-04-14T01:18:27.184Z,8.55
2023-04-14T01:21:21.754Z,8.48
2023-04-14T01:24:09.373Z,8.37
2023-04-14T01:26:39.187Z,8.27
2023-04-14T01:29:16.789Z,8.18
2023-04-14T01:31:49.493Z,8.09
2023-04-14T01:34:31.454Z,8.00
2023-04-14T01:37:15.049Z,7.88
2023-04-14T01:39:54.701Z,7.78
2023-04-14T01:42:27.806Z,7.69
2023-04-14T01:45:01.824Z,7.58
2023-04-14T01:47:30.483Z,7.48
2023-04-14T01:50:01.209Z,7.36
2023-04-14T01:52:31.026Z,7.26
2023-04-14T01:55:05.917Z,7.18
2023-04-14T01:57:36.754Z,7.09
2023-04-14T02:00:09.288Z,6.95
2023-04-14T02:02:45.628Z,6.84
2023-04-14T02:05:17.297Z,6.73
2023-04-14T02:07:48.201Z,6.66
2023-04-14T02:10:20.504Z,6.60
2023-04-14T02:12:52.824Z,6.52
2023-04-14T02:15:24.109Z,6.44
2023-04-14T02:17:52.976Z,6.36
2023-04-14T02:20:22.234Z,6.29
2023-04-14T02:22:50.578Z,6.25
2023-04-14T02:25:18.987Z,6.19
2023-04-14T02:27:56.463Z,6.13
2023-04-14T02:30:30.287Z,6.04
2023-04-14T02:33:05.765Z,5.97
2023-04-14T02:35:47.735Z,5.92
2023-04-14T02:38:33.492Z,5.87
2023-04-14T02:41:08.922Z,5.85
2023-04-14T02:43:44.288Z,5.84
2023-04-14T02:46:15.992Z,5.83
2023-04-14T02:48:46.410Z,5.83
2023-04-14T02:51:18.145Z,5.83
2023-04-14T02:53:48.356Z,5.81
2023-04-14T02:56:26.430Z,5.80
2023-04-14T02:58:56.788Z,5.79
2023-04-14T03:01:26.808Z,5.78
2023-04-14T03:03:57.899Z,5.78
2023-04-14T03:06:28.990Z,5.78
2023-04-14T03:09:00.046Z,5.78
2023-04-14T03:11:29.545Z,5.79
2023-04-14T03:13:59.422Z,5.81
2023-04-14T03:16:28.917Z,5.83
2023-04-14T03:18:58.570Z,5.86
2023-04-14T03:21:30.196Z,5.88
2023-04-14T03:23:59.365Z,5.91
2023-04-14T03:26:32.490Z,5.94
2023-04-14T03:29:03.734Z,5.97
2023-04-14T03:31:37.109Z,6.01
2023-04-14T03:34:07.656Z,6.04
2023-04-14T03:36:41.315Z,6.08
2023-04-14T03:39:12.570Z,6.12
2023-04-14T03:41:47.824Z,6.16
2023-04-14T03:44:19.140Z,6.19
2023-04-14T03:46:49.490Z,6.24
2023-04-14T03:49:20.875Z,6.29
2023-04-14T03:51:53.660Z,6.33
2023-04-14T03:54:25.444Z,6.39
2023-04-14T03:56:57.010Z,6.44
2023-04-14T03:59:28.448Z,6.50
2023-04-14T04:01:57.659Z,6.55
2023-04-14T04:04:26.322Z,6.61
2023-04-14T04:06:55.046Z,6.66
2023-04-14T04:09:24.992Z,6.71
2023-04-14T04:11:58.092Z,6.75
2023-04-14T04:14:30.039Z,6.79
2023-04-14T04:17:02.838Z,6.85
2023-04-14T04:19:33.757Z,6.89
2023-04-14T04:22:03.514Z,6.94
2023-04-14T04:24:37.570Z,7.00
2023-04-14T04:27:17.140Z,7.06
2023-04-14T04:29:54.039Z,7.13
2023-04-14T04:32:22.484Z,7.19
2023-04-14T04:34:51.871Z,7.26
2023-04-14T04:37:21.728Z,7.32
2023-04-14T04:39:50.042Z,7.40
2023-04-14T04:42:18.858Z,7.49
2023-04-14T04:44:47.674Z,7.57
2023-04-14T04:47:16.103Z,7.66
2023-04-14T04:49:45.096Z,7.74
2023-04-14T04:52:13.539Z,7.83
2023-04-14T04:54:41.715Z,7.94
2023-04-14T04:57:11.201Z,8.04
2023-04-14T04:59:40.486Z,8.14
2023-04-14T05:02:08.809Z,8.23
2023-04-14T05:04:37.279Z,8.31
2023-04-14T05:07:06.266Z,8.38
2023-04-14T05:09:34.518Z,8.46
2023-04-14T05:12:03.171Z,8.54
2023-04-14T05:14:31.498Z,8.62
2023-04-14T05:16:59.674Z,8.69
2023-04-14T05:19:27.875Z,8.77
2023-04-14T05:21:56.141Z,8.84
2023-04-14T05:24:24.453Z,8.93
2023-04-14T05:27:12.344Z,9.03
2023-04-14T05:29:41.563Z,9.13
2023-04-14T05:32:10.770Z,9.24
2023-04-14T05:34:38.980Z,9.36
2023-04-14T05:37:07.338Z,9.47
2023-04-14T05:39:35.988Z,9.57
2023-04-14T05:42:04.413Z,9.68
2023-04-14T05:44:32.702Z,9.79
2023-04-14T05:47:01.018Z,9.91
2023-04-14T05:49:30.721Z,9.99
2023-04-14T05:51:58.978Z,10.08
2023-04-14T05:54:27.191Z,10.18
2023-04-14T05:56:56.491Z,10.29
2023-04-14T05:59:24.853Z,10.42
2023-04-14T06:01:53.238Z,10.50
2023-04-14T06:04:22.182Z,10.58
2023-04-14T06:06:52.581Z,10.69
2023-04-14T06:09:21.634Z,10.75
2023-04-14T06:11:50.105Z,10.82
2023-04-14T06:14:21.457Z,10.88
2023-04-14T06:16:52.702Z,10.96
2023-04-14T06:19:21.259Z,11.03
2023-04-14T06:21:49.798Z,11.11
2023-04-14T06:24:18.408Z,11.17
2023-04-14T06:26:47.538Z,11.23
2023-04-14T06:29:16.232Z,11.30
2023-04-14T06:31:44.904Z,11.40
2023-04-14T06:34:13.428Z,11.45
2023-04-14T06:36:44.184Z,11.51
2023-04-14T06:39:14.384Z,11.59
2023-04-14T06:41:44.091Z,11.66
2023-04-14T06:44:14.863Z,11.74
2023-04-14T06:46:43.372Z,11.82
2023-04-14T06:49:37.518Z,11.89
2023-04-14T06:52:06.458Z,12.02
2023-04-14T06:54:36.240Z,12.13
2023-04-14T06:57:06.034Z,12.26
2023-04-14T06:59:34.517Z,12.39
2023-04-14T07:02:03.181Z,12.50
2023-04-14T07:04:31.871Z,12.63
2023-04-14T07:07:01.216Z,12.76
2023-04-14T07:09:29.804Z,12.84
2023-04-14T07:11:59.707Z,12.90
2023-04-14T07:14:32.497Z,12.94
2023-04-14T07:17:01.051Z,12.99
2023-04-14T07:19:30.038Z,13.04
2023-04-14T07:21:58.512Z,13.09
2023-04-14T07:24:26.851Z,13.14
2023-04-14T07:26:55.619Z,13.24
2023-04-14T07:29:24.003Z,13.34
2023-04-14T07:31:52.325Z,13.51
2023-04-14T07:34:21.301Z,13.64
2023-04-14T07:36:49.820Z,13.76
2023-04-14T07:39:22.410Z,13.87
2023-04-14T07:41:51.228Z,13.99
2023-04-14T07:44:19.614Z,14.09
2023-04-14T07:46:47.998Z,14.19
2023-04-14T07:49:16.527Z,14.30
2023-04-14T07:51:44.861Z,14.41
2023-04-14T07:54:13.220Z,14.55
2023-04-14T07:56:41.939Z,14.68
2023-04-14T07:59:10.500Z,14.78
2023-04-14T08:01:39.178Z,14.89
2023-04-14T08:04:07.677Z,15.02
2023-04-14T08:06:36.571Z,15.18
2023-04-14T08:09:04.909Z,15.37
2023-04-14T08:11:33.223Z,15.55
2023-04-14T08:14:01.542Z,15.67
2023-04-14T08:16:30.345Z,15.82
2023-04-14T08:18:59.112Z,15.98
2023-04-14T08:21:27.816Z,16.12
2023-04-14T08:23:56.244Z,16.31
2023-04-14T08:26:24.635Z,16.49
2023-04-14T08:28:53.769Z,16.60
2023-04-14T08:31:25.851Z,16.64
2023-04-14T08:33:54.302Z,16.68
2023-04-14T08:36:22.811Z,16.77
2023-04-14T08:38:51.184Z,16.84
2023-04-14T08:41:23.415Z,16.86
2023-04-14T08:43:53.247Z,16.88
2023-04-14T08:46:24.614Z,17.00
2023-04-14T08:48:59.161Z,17.07
2023-04-14T08:51:35.053Z,17.11
2023-04-14T08:54:10.816Z,17.17
2023-04-14T08:56:43.242Z,17.22
2023-04-14T08:59:12.125Z,17.30
2023-04-14T09:01:40.694Z,17.37
2023-04-14T09:04:10.388Z,17.42
2023-04-14T09:06:39.966Z,17.53
2023-04-14T09:09:16.884Z,17.63
2023-04-14T09:11:45.529Z,17.76
2023-04-14T09:14:18.391Z,17.84
2023-04-14T09:16:48.876Z,18.00
2023-04-14T09:19:17.556Z,18.11
2023-04-14T09:21:53.809Z,18.14
2023-04-14T09:24:25.069Z,18.14
2023-04-14T09:26:56.090Z,18.24
2023-04-14T09:29:26.680Z,18.39
2023-04-14T09:31:55.101Z,18.48
2023-04-14T09:34:23.615Z,18.57
2023-04-14T09:37:08.340Z,18.71
2023-04-14T09:39:48.112Z,18.77
2023-04-14T09:42:17.726Z,18.78
2023-04-14T09:44:56.966Z,18.78
2023-04-14T09:47:26.307Z,18.79
2023-04-14T09:49:57.737Z,18.73
2023-04-14T09:52:47.693Z,18.68
2023-04-14T09:55:16.948Z,18.66
2023-04-14T09:57:58.519Z,18.69
2023-04-14T10:00:27.373Z,18.73
2023-04-14T10:03:01.665Z,18.72
2023-04-14T10:05:34.561Z,18.67
2023-04-14T10:08:04.384Z,18.63
2023-04-14T10:10:33.041Z,18.65
2023-04-14T10:13:02.246Z,18.70
2023-04-14T10:15:31.782Z,18.70
2023-04-14T10:18:01.216Z,18.68
2023-04-14T10:20:29.955Z,18.78
2023-04-14T10:22:58.644Z,18.94
2023-04-14T10:25:28.044Z,19.09
2023-04-14T10:27:56.940Z,19.30
2023-04-14T10:30:26.222Z,19.50
2023-04-14T10:32:54.959Z,19.58
2023-04-14T10:35:23.484Z,19.51
2023-04-14T10:37:53.860Z,19.42
2023-04-14T10:40:23.329Z,19.36
2023-04-14T10:42:56.738Z,19.26
2023-04-14T10:46:06.722Z,19.14
2023-04-14T10:48:38.005Z,19.05
2023-04-14T10:51:10.868Z,18.99
2023-04-14T10:53:50.227Z,18.93
2023-04-14T10:56:25.210Z,18.84
2023-04-14T10:58:57.344Z,18.74
2023-04-14T11:01:31.122Z,18.61
2023-04-14T11:04:18.118Z,18.48
2023-04-14T11:06:53.045Z,18.40
2023-04-14T11:09:25.852Z,18.33
2023-04-14T11:11:56.788Z,18.25
2023-04-14T11:14:30.800Z,18.16
2023-04-14T11:17:05.408Z,18.09
2023-04-14T11:19:34.171Z,18.02
2023-04-14T11:22:02.731Z,17.99
2023-04-14T11:24:31.500Z,17.95
2023-04-14T11:27:00.222Z,17.87
2023-04-14T11:29:28.807Z,17.81
2023-04-14T11:32:02.158Z,17.77
2023-04-14T11:34:30.677Z,17.83
2023-04-14T11:37:01.707Z,17.97
2023-04-14T11:39:30.794Z,18.17
2023-04-14T11:42:01.584Z,18.41
2023-04-14T11:44:30.414Z,18.67
2023-04-14T11:46:58.796Z,19.06
2023-04-14T11:49:36.830Z,19.55
2023-04-14T11:52:08.726Z,19.96
2023-04-14T11:54:40.936Z,20.28
2023-04-14T11:57:14.916Z,20.40
2023-04-14T11:59:47.967Z,20.45
2023-04-14T12:02:23.213Z,20.66
2023-04-14T12:04:52.451Z,20.84
2023-04-14T12:07:21.100Z,20.80
2023-04-14T12:09:51.669Z,20.71
2023-04-14T12:12:20.375Z,20.70
2023-04-14T12:14:49.845Z,20.61
2023-04-14T12:17:20.397Z,20.62
2023-04-14T12:19:49.165Z,20.66
2023-04-14T12:22:27.912Z,20.76
2023-04-14T12:24:57.634Z,20.92
2023-04-14T12:27:27.729Z,20.93
2023-04-14T12:30:01.402Z,20.83
2023-04-14T12:32:41.046Z,20.76
2023-04-14T12:35:14.730Z,20.75
2023-04-14T12:37:51.733Z,20.64
2023-04-14T12:40:38.446Z,20.52
2023-04-14T12:43:08.671Z,20.52
2023-04-14T12:45:51.947Z,20.61
2023-04-14T12:48:20.972Z,20.63
2023-04-14T12:51:07.699Z,20.67
2023-04-14T12:53:36.404Z,20.55
2023-04-14T12:56:09.535Z,20.37
2023-04-14T12:58:43.816Z,20.25
2023-04-14T13:01:14.138Z,20.24
2023-04-14T13:03:43.061Z,20.32
2023-04-14T13:06:16.644Z,20.45
2023-04-14T13:08:51.655Z,20.53
2023-04-14T13:11:22.281Z,20.47
2023-04-14T13:13:52.524Z,20.43
2023-04-14T13:16:26.244Z,20.32
2023-04-14T13:18:59.417Z,20.17
2023-04-14T13:21:31.467Z,20.05
2023-04-14T13:24:00.058Z,19.81
2023-04-14T13:26:28.391Z,19.57
2023-04-14T13:28:56.697Z,19.34
2023-04-14T13:31:25.020Z,19.13
2023-04-14T13:33:53.493Z,18.99
2023-04-14T13:36:22.955Z,18.85
2023-04-14T13:38:51.696Z,18.73
2023-04-14T13:41:20.118Z,18.61
2023-04-14T13:43:48.503Z,18.47
2023-04-14T13:46:19.081Z,18.38
2023-04-14T13:48:47.713Z,18.27
2023-04-14T13:51:15.986Z,18.17
2023-04-14T13:53:44.333Z,18.13
2023-04-14T13:56:12.608Z,18.13
2023-04-14T13:58:41.759Z,18.16
2023-04-14T14:01:12.665Z,18.18
2023-04-14T14:03:42.152Z,18.17
2023-04-14T14:06:10.656Z,18.17
2023-04-14T14:08:39.201Z,18.14
2023-04-14T14:11:08.981Z,18.10
2023-04-14T14:13:38.976Z,18.05
2023-04-14T14:16:09.983Z,17.96
2023-04-14T14:18:38.470Z,17.88
2023-04-14T14:21:06.876Z,17.81
2023-04-14T14:23:35.149Z,17.76
2023-04-14T14:26:03.581Z,17.69
2023-04-14T14:28:32.513Z,17.62
2023-04-14T14:31:01.110Z,17.56
2023-04-14T14:33:29.576Z,17.51
2023-04-14T14:35:57.927Z,17.44
2023-04-14T14:38:26.359Z,17.37
2023-04-14T14:40:54.614Z,17.33
2023-04-14T14:43:22.883Z,17.30
2023-04-14T14:45:51.282Z,17.27
2023-04-14T14:48:19.695Z,17.23
2023-04-14T14:50:47.969Z,17.17
2023-04-14T14:53:16.645Z,17.12
2023-04-14T14:55:44.945Z,17.06
2023-04-14T14:58:13.211Z,17.02
2023-04-14T15:00:41.662Z,16.97
2023-04-14T15:03:10.240Z,16.91
2023-04-14T15:05:38.691Z,16.86
2023-04-14T15:08:07.363Z,16.79
2023-04-14T15:10:35.861Z,16.72
2023-04-14T15:13:04.481Z,16.67
2023-04-14T15:15:36.256Z,16.63
2023-04-14T15:18:05.300Z,16.59
2023-04-14T15:20:33.589Z,16.55
2023-04-14T15:23:02.336Z,16.51
2023-04-14T15:25:31.208Z,16.46
2023-04-14T15:27:59.533Z,16.43
2023-04-14T15:30:28.125Z,16.42
2023-04-14T15:32:58.273Z,16.40
2023-04-14T15:35:26.836Z,16.38
2023-04-14T15:37:55.173Z,16.36
2023-04-14T15:40:23.644Z,16.33
2023-04-14T15:42:52.974Z,16.30
2023-04-14T15:45:21.692Z,16.26
2023-04-14T15:47:50.736Z,16.23
2023-04-14T15:50:19.236Z,16.21
2023-04-14T15:52:47.610Z,16.19
2023-04-14T15:55:15.936Z,16.15
2023-04-14T15:57:44.184Z,16.12
2023-04-14T16:00:13.166Z,16.08
2023-04-14T16:02:42.715Z,16.03
2023-04-14T16:05:11.471Z,15.97
2023-04-14T16:07:39.998Z,15.93
2023-04-14T16:10:08.588Z,15.90
2023-04-14T16:12:36.960Z,15.86
2023-04-14T16:15:08.768Z,15.82
2023-04-14T16:17:37.214Z,15.78
2023-04-14T16:20:06.039Z,15.74
2023-04-14T16:22:34.345Z,15.70
2023-04-14T16:25:04.518Z,15.67
2023-04-14T16:27:33.773Z,15.64
2023-04-14T16:30:03.305Z,15.62
2023-04-14T16:32:31.713Z,15.60
2023-04-14T16:35:01.185Z,15.58
2023-04-14T16:37:29.503Z,15.55
2023-04-14T16:39:58.206Z,15.52
2023-04-14T16:42:26.595Z,15.48
2023-04-14T16:44:56.236Z,15.43
2023-04-14T16:47:24.727Z,15.40
2023-04-14T16:49:54.215Z,15.36
2023-04-14T16:52:23.379Z,15.32
2023-04-14T16:54:52.354Z,15.26
2023-04-14T16:57:21.746Z,15.22
2023-04-14T16:59:50.110Z,15.18
2023-04-14T17:02:18.571Z,15.12
2023-04-14T17:04:47.289Z,15.07
2023-04-14T17:07:16.145Z,15.02
2023-04-14T17:09:44.528Z,14.96
2023-04-14T17:12:12.750Z,14.91
2023-04-14T17:14:43.387Z,14.86
2023-04-14T17:17:11.833Z,14.80
2023-04-14T17:19:40.721Z,14.73
2023-04-14T17:22:09.250Z,14.66
2023-04-14T17:24:37.719Z,14.58
2023-04-14T17:27:06.404Z,14.50
2023-04-14T17:29:34.883Z,14.43
2023-04-14T17:32:03.738Z,14.36
2023-04-14T17:34:33.003Z,14.32
2023-04-14T17:37:01.469Z,14.28
2023-04-14T17:39:29.914Z,14.25
2023-04-14T17:41:58.523Z,14.24
2023-04-14T17:44:34.531Z,14.22
2023-04-14T17:47:11.289Z,14.20
2023-04-14T17:49:39.908Z,14.19
2023-04-14T17:52:18.390Z,14.19
2023-04-14T17:54:47.443Z,14.17
2023-04-14T17:57:17.410Z,14.16
2023-04-14T17:59:45.983Z,14.15
2023-04-14T18:02:15.713Z,14.12
2023-04-14T18:04:44.718Z,14.08
2023-04-14T18:07:13.040Z,14.05
2023-04-14T18:09:41.801Z,14.00
2023-04-14T18:12:10.975Z,13.96
2023-04-14T18:14:39.550Z,13.92
2023-04-14T18:17:07.860Z,13.88
2023-04-14T18:19:36.112Z,13.83
2023-04-14T18:22:04.423Z,13.78
2023-04-14T18:28:02.672Z,13.66
2023-04-14T18:29:54.254Z,13.59
2023-04-14T18:32:25.220Z,13.54
2023-04-14T18:34:53.624Z,13.47
2023-04-14T18:37:21.918Z,13.43
2023-04-14T18:39:50.404Z,13.39
2023-04-14T18:42:18.761Z,13.34
2023-04-14T18:44:47.092Z,13.31
2023-04-14T18:47:16.087Z,13.29
2023-04-14T18:49:44.394Z,13.26
2023-04-14T18:52:13.059Z,13.23
2023-04-14T18:54:41.429Z,13.21
2023-04-14T18:57:10.034Z,13.17
2023-04-14T18:59:38.296Z,13.13
2023-04-14T19:02:06.746Z,13.11
2023-04-14T19:04:35.906Z,13.07
2023-04-14T19:07:04.156Z,13.04
2023-04-14T19:09:33.747Z,13.01
2023-04-14T19:12:02.414Z,12.98
2023-04-14T19:14:30.792Z,12.95
2023-04-14T19:16:59.182Z,12.91
2023-04-14T19:19:27.520Z,12.87
2023-04-14T19:21:55.741Z,12.82
2023-04-14T19:24:24.369Z,12.76
2023-04-14T19:26:52.673Z,12.70
2023-04-14T19:29:23.189Z,12.63
2023-04-14T19:31:51.992Z,12.55
2023-04-14T19:34:20.749Z,12.47
2023-04-14T19:36:49.653Z,12.39
2023-04-14T19:39:20.230Z,12.33
2023-04-14T19:41:48.587Z,12.25
2023-04-14T19:44:21.841Z,12.19
2023-04-14T19:46:50.702Z,12.12
2023-04-14T19:49:19.197Z,12.06
2023-04-14T19:51:49.405Z,12.01
2023-04-14T19:54:17.855Z,11.97
2023-04-14T19:56:48.011Z,11.92
2023-04-14T19:59:17.597Z,11.87
2023-04-14T20:01:47.461Z,11.82
2023-04-14T20:04:15.980Z,11.78
2023-04-14T20:06:44.461Z,11.73
2023-04-14T20:09:13.116Z,11.70
2023-04-14T20:11:41.399Z,11.67
2023-04-14T20:14:10.745Z,11.63
2023-04-14T20:16:39.182Z,11.61
2023-04-14T20:19:07.455Z,11.57
2023-04-14T20:21:35.732Z,11.54
2023-04-14T20:24:04.730Z,11.51
2023-04-14T20:26:35.014Z,11.48
2023-04-14T20:29:05.385Z,11.44
2023-04-14T20:31:33.783Z,11.42
2023-04-14T20:34:03.456Z,11.40
2023-04-14T20:36:35.722Z,11.38
2023-04-14T20:39:06.041Z,11.38
2023-04-14T20:41:34.917Z,11.37
2023-04-14T20:44:06.355Z,11.38
2023-04-14T20:46:35.022Z,11.38
2023-04-14T20:49:03.521Z,11.37
2023-04-14T20:51:32.402Z,11.38
2023-04-14T20:54:01.861Z,11.39
2023-04-14T20:56:31.002Z,11.40
2023-04-14T20:59:00.540Z,11.39
2023-04-14T21:01:29.285Z,11.40
2023-04-14T21:03:57.663Z,11.41
2023-04-14T21:06:26.022Z,11.41
2023-04-14T21:08:54.330Z,11.41
2023-04-14T21:11:22.529Z,11.42
2023-04-14T21:15:40.402Z,11.41
2023-04-14T21:16:39.738Z,11.41
2023-04-14T21:19:08.234Z,11.41
2023-04-14T21:21:36.949Z,11.41
2023-04-14T21:24:06.026Z,11.41
2023-04-14T21:26:34.293Z,11.41
2023-04-14T21:29:02.732Z,11.42
2023-04-14T21:31:32.229Z,11.41
2023-04-14T21:34:00.577Z,11.41
2023-04-14T21:36:28.887Z,11.42
2023-04-14T21:38:57.368Z,11.42
2023-04-14T21:41:25.619Z,11.42
2023-04-14T21:43:53.986Z,11.41
2023-04-14T21:46:22.341Z,11.41
2023-04-14T21:48:50.930Z,11.40
2023-04-14T21:51:19.195Z,11.39
2023-04-14T21:53:47.832Z,11.37
2023-04-14T21:56:16.255Z,11.36
2023-04-14T21:58:45.977Z,11.35
2023-04-14T22:01:14.452Z,11.36
2023-04-14T22:03:42.872Z,11.35
2023-04-14T22:06:11.617Z,11.34
2023-04-14T22:08:40.804Z,11.32
2023-04-14T22:11:09.249Z,11.31
2023-04-14T22:13:37.576Z,11.30
2023-04-14T22:16:06.480Z,11.29
2023-04-14T22:18:35.897Z,11.26
2023-04-14T22:21:10.011Z,11.24
2023-04-14T22:23:40.154Z,11.23
2023-04-14T22:26:09.087Z,11.20
2023-04-14T22:28:46.540Z,11.20
2023-04-14T22:31:14.933Z,11.19
2023-04-14T22:33:43.689Z,11.17
2023-04-14T22:36:12.568Z,11.16
2023-04-14T22:38:41.985Z,11.14
2023-04-14T22:41:10.288Z,11.11
2023-04-14T22:43:38.526Z,11.09
2023-04-14T22:46:07.088Z,11.05
2023-04-14T22:48:35.379Z,11.02
2023-04-14T22:51:03.813Z,11.00
2023-04-14T22:53:32.236Z,10.97
2023-04-14T22:56:00.766Z,10.92
2023-04-14T22:58:32.088Z,10.89
2023-04-14T23:01:04.480Z,10.86
2023-04-14T23:03:37.870Z,10.83
2023-04-14T23:06:07.188Z,10.80
2023-04-14T23:08:35.519Z,10.77
2023-04-14T23:11:03.950Z,10.74
2023-04-14T23:13:32.335Z,10.70
2023-04-14T23:16:00.817Z,10.67
2023-04-14T23:18:28.978Z,10.65
2023-04-14T23:20:57.508Z,10.62
2023-04-14T23:23:25.906Z,10.61
2023-04-14T23:25:55.673Z,10.58
2023-04-14T23:28:25.092Z,10.55
2023-04-14T23:30:53.396Z,10.53
2023-04-14T23:33:21.928Z,10.50
2023-04-14T23:35:51.078Z,10.46
2023-04-14T23:38:19.632Z,10.44
2023-04-14T23:40:48.332Z,10.43
2023-04-14T23:43:16.759Z,10.40
2023-04-14T23:45:45.167Z,10.38
2023-04-14T23:48:13.381Z,10.34
2023-04-14T23:51:00.231Z,10.31
2023-04-14T23:53:30.362Z,10.27
2023-04-14T23:55:58.780Z,10.23
2023-04-14T23:58:30.289Z,10.20
